createdAt,value
2022-09-25T00:00:45.039Z,980.6
2022-09-25T00:02:46.393Z,980.5
2022-09-25T00:04:47.692Z,980.6
2022-09-25T00:06:49.439Z,980.5
2022-09-25T00:08:50.509Z,980.6
2022-09-25T00:10:51.817Z,980.6
2022-09-25T00:12:53.294Z,980.6
2022-09-25T00:14:54.973Z,980.6
2022-09-25T00:16:56.038Z,980.6
2022-09-25T00:18:57.720Z,980.6
2022-09-25T00:20:59.491Z,980.6
2022-09-25T00:23:01.220Z,980.6
2022-09-25T00:25:02.754Z,980.6
2022-09-25T00:27:04.486Z,980.5
2022-09-25T00:29:06.078Z,980.4
2022-09-25T00:31:07.359Z,980.4
2022-09-25T00:33:08.488Z,980.5
2022-09-25T00:35:09.847Z,980.4
2022-09-25T00:37:11.620Z,980.2
2022-09-25T00:41:14.159Z,980.3
2022-09-25T00:43:15.634Z,980.3
2022-09-25T00:45:16.774Z,980.2
2022-09-25T00:47:17.829Z,980.2
2022-09-25T00:51:20.659Z,980.2
2022-09-25T00:53:22.179Z,980.2
2022-09-25T00:55:23.347Z,980.3
2022-09-25T00:57:24.610Z,980.2
2022-09-25T00:59:25.762Z,980.1
2022-09-25T01:01:27.603Z,980.3
2022-09-25T01:03:29.333Z,980.2
2022-09-25T01:05:30.568Z,980.2
2022-09-25T01:07:32.258Z,980.2
2022-09-25T01:09:33.777Z,980.2
2022-09-25T01:11:35.466Z,980.3
2022-09-25T01:13:36.951Z,980.1
2022-09-25T01:15:38.308Z,980.1
2022-09-25T01:17:39.751Z,980.1
2022-09-25T01:19:41.520Z,980.2
2022-09-25T01:21:43.049Z,980.1
2022-09-25T01:23:44.701Z,980.2
2022-09-25T01:25:45.953Z,980.2
2022-09-25T01:27:47.334Z,980.1
2022-09-25T01:29:48.378Z,980.2
2022-09-25T01:31:49.530Z,980.2
2022-09-25T01:35:52.506Z,980.2
2022-09-25T01:39:56.134Z,980.1
2022-09-25T01:41:57.061Z,980
2022-09-25T01:43:58.293Z,980.1
2022-09-25T01:45:59.413Z,980.1
2022-09-25T01:48:00.856Z,980.1
2022-09-25T01:50:02.546Z,980
2022-09-25T01:52:04.060Z,980
2022-09-25T01:54:05.174Z,980.1
2022-09-25T01:56:06.622Z,980.1
2022-09-25T01:58:08.304Z,980
2022-09-25T02:00:10.115Z,979.9
2022-09-25T02:02:11.464Z,979.9
2022-09-25T02:04:12.817Z,980
2022-09-25T02:06:14.714Z,980
2022-09-25T02:08:15.643Z,980.1
2022-09-25T02:10:17.006Z,980
2022-09-25T02:12:18.482Z,980
2022-09-25T02:14:19.482Z,980
2022-09-25T02:16:21.251Z,979.9
2022-09-25T02:18:22.610Z,979.9
2022-09-25T02:20:24.550Z,980
2022-09-25T02:22:25.537Z,980
2022-09-25T02:24:27.193Z,980
2022-09-25T02:26:28.766Z,979.9
2022-09-25T02:28:30.657Z,979.9
2022-09-25T02:30:32.103Z,979.9
2022-09-25T02:34:35.251Z,980
2022-09-25T02:38:37.959Z,979.9
2022-09-25T02:40:39.014Z,980
2022-09-25T02:42:40.196Z,979.9
2022-09-25T02:44:41.418Z,979.9
2022-09-25T02:46:43.046Z,979.9
2022-09-25T02:48:44.737Z,979.9
2022-09-25T02:50:46.533Z,979.9
2022-09-25T02:52:47.825Z,979.9
2022-09-25T02:54:49.733Z,979.9
2022-09-25T02:56:50.791Z,979.9
2022-09-25T02:58:52.197Z,979.9
2022-09-25T03:00:53.378Z,979.9
2022-09-25T03:02:54.527Z,980
2022-09-25T03:04:56.352Z,980
2022-09-25T03:06:58.163Z,980
2022-09-25T03:11:00.973Z,979.9
2022-09-25T03:15:04.127Z,980
2022-09-25T03:17:05.532Z,979.9
2022-09-25T03:19:07.229Z,979.8
2022-09-25T03:21:09.019Z,980
2022-09-25T03:23:10.833Z,979.9
2022-09-25T03:25:12.146Z,979.9
2022-09-25T03:27:13.334Z,979.9
2022-09-25T03:29:14.465Z,979.9
2022-09-25T03:31:16.394Z,979.8
2022-09-25T03:33:17.614Z,979.8
2022-09-25T03:35:19.187Z,979.9
2022-09-25T03:37:20.331Z,979.8
2022-09-25T03:39:21.966Z,979.7
2022-09-25T03:41:23.615Z,979.7
2022-09-25T03:43:24.673Z,979.8
2022-09-25T03:45:26.519Z,979.7
2022-09-25T03:47:27.745Z,979.7
2022-09-25T03:49:28.747Z,979.8
2022-09-25T03:53:31.259Z,979.8
2022-09-25T03:55:32.760Z,979.8
2022-09-25T03:57:33.956Z,979.7
2022-09-25T03:59:35.644Z,979.8
2022-09-25T04:01:36.899Z,979.8
2022-09-25T04:03:38.427Z,979.8
2022-09-25T04:05:39.365Z,979.8
2022-09-25T04:07:40.582Z,979.8
2022-09-25T04:09:41.673Z,979.8
2022-09-25T04:11:42.655Z,979.8
2022-09-25T04:13:44.435Z,979.8
2022-09-25T04:15:45.739Z,979.7
2022-09-25T04:17:47.044Z,979.7
2022-09-25T04:19:48.793Z,979.8
2022-09-25T04:21:50.290Z,979.8
2022-09-25T04:23:51.645Z,979.7
2022-09-25T04:25:52.866Z,979.7
2022-09-25T04:27:54.018Z,979.7
2022-09-25T04:29:55.270Z,979.6
2022-09-25T04:31:56.963Z,979.6
2022-09-25T04:33:58.232Z,979.6
2022-09-25T04:35:59.993Z,979.6
2022-09-25T04:38:01.465Z,979.7
2022-09-25T04:40:02.849Z,979.6
2022-09-25T04:42:04.663Z,979.6
2022-09-25T04:44:05.941Z,979.7
2022-09-25T04:46:07.260Z,979.7
2022-09-25T04:48:08.609Z,979.7
2022-09-25T04:52:11.144Z,979.8
2022-09-25T04:54:12.667Z,979.8
2022-09-25T04:56:15.738Z,979.8
2022-09-25T04:58:15.658Z,979.7
2022-09-25T05:00:16.605Z,979.8
2022-09-25T05:02:17.563Z,979.8
2022-09-25T05:04:18.579Z,979.8
2022-09-25T05:06:19.826Z,979.8
2022-09-25T05:08:21.216Z,979.8
2022-09-25T05:10:22.975Z,979.9
2022-09-25T05:12:24.238Z,979.8
2022-09-25T05:14:25.582Z,979.9
2022-09-25T05:18:27.847Z,979.8
2022-09-25T05:20:29.141Z,979.8
2022-09-25T05:22:30.195Z,979.8
2022-09-25T05:24:31.901Z,979.7
2022-09-25T05:28:34.374Z,979.7
2022-09-25T05:30:35.440Z,979.7
2022-09-25T05:34:37.956Z,979.7
2022-09-25T05:36:39.043Z,979.7
2022-09-25T05:38:40.082Z,979.7
2022-09-25T05:40:41.487Z,979.8
2022-09-25T05:42:42.897Z,979.7
2022-09-25T05:43:26.757Z,979.8
2022-09-25T05:45:28.591Z,979.8
2022-09-25T05:47:29.785Z,979.8
2022-09-25T05:49:30.802Z,979.7
2022-09-25T05:51:32.257Z,979.8
2022-09-25T05:53:33.373Z,979.8
2022-09-25T05:55:35.122Z,979.8
2022-09-25T05:57:36.232Z,979.8
2022-09-25T05:59:37.937Z,979.8
2022-09-25T06:01:39.683Z,979.8
2022-09-25T06:03:40.563Z,979.7
2022-09-25T06:05:42.010Z,979.8
2022-09-25T06:07:43.719Z,979.8
2022-09-25T06:09:45.006Z,979.8
2022-09-25T06:11:46.236Z,979.8
2022-09-25T06:13:50.762Z,979.8
2022-09-25T06:15:49.385Z,979.8
2022-09-25T06:17:51.195Z,979.8
2022-09-25T06:19:52.711Z,979.8
2022-09-25T06:21:54.336Z,979.8
2022-09-25T06:23:56.214Z,979.8
2022-09-25T06:27:58.722Z,979.8
2022-09-25T06:30:00.272Z,979.8
2022-09-25T06:32:01.705Z,979.8
2022-09-25T06:34:02.954Z,979.6
2022-09-25T06:36:04.777Z,979.8
2022-09-25T06:38:05.936Z,979.8
2022-09-25T06:40:07.051Z,979.8
2022-09-25T06:42:08.453Z,979.9
2022-09-25T06:44:10.050Z,979.8
2022-09-25T06:46:11.678Z,979.8
2022-09-25T06:48:12.554Z,979.8
2022-09-25T06:50:13.509Z,979.9
2022-09-25T06:54:16.894Z,979.9
2022-09-25T06:56:18.665Z,979.9
2022-09-25T06:58:20.378Z,979.9
2022-09-25T07:00:21.535Z,979.9
2022-09-25T07:02:23.126Z,979.9
2022-09-25T07:04:24.414Z,979.9
2022-09-25T07:06:25.394Z,979.9
2022-09-25T07:08:27.275Z,980
2022-09-25T07:10:28.312Z,979.9
2022-09-25T07:12:29.865Z,979.9
2022-09-25T07:14:30.819Z,979.9
2022-09-25T07:16:31.991Z,979.9
2022-09-25T07:18:33.390Z,979.9
2022-09-25T07:20:34.788Z,980
2022-09-25T07:22:35.946Z,979.9
2022-09-25T07:24:37.335Z,979.9
2022-09-25T07:26:42.427Z,980
2022-09-25T07:28:40.296Z,980
2022-09-25T07:30:41.930Z,980
2022-09-25T07:32:43.787Z,980
2022-09-25T07:34:44.811Z,980
2022-09-25T07:36:45.841Z,980
2022-09-25T07:38:47.619Z,980
2022-09-25T07:40:49.414Z,980
2022-09-25T07:42:50.828Z,980
2022-09-25T07:44:52.726Z,980
2022-09-25T07:48:55.414Z,980
2022-09-25T07:52:58.007Z,980.1
2022-09-25T07:54:59.826Z,980.1
2022-09-25T07:57:01.198Z,980.1
2022-09-25T07:59:02.363Z,980.1
2022-09-25T08:01:04.175Z,980.2
2022-09-25T08:03:05.962Z,980.1
2022-09-25T08:05:07.777Z,980.1
2022-09-25T08:07:09.585Z,980.1
2022-09-25T08:09:10.898Z,980.2
2022-09-25T08:11:12.060Z,980.1
2022-09-25T08:13:13.235Z,980.2
2022-09-25T08:15:15.027Z,980.1
2022-09-25T08:17:16.887Z,980.1
2022-09-25T08:19:18.359Z,980.1
2022-09-25T08:21:19.524Z,980.1
2022-09-25T08:23:20.634Z,980.1
2022-09-25T08:25:22.131Z,980.1
2022-09-25T08:27:23.103Z,980.1
2022-09-25T08:29:24.498Z,980.1
2022-09-25T08:31:25.673Z,980.1
2022-09-25T08:33:26.677Z,980.1
2022-09-25T08:35:28.007Z,980.1
2022-09-25T08:37:29.382Z,980.1
2022-09-25T08:39:30.600Z,980.1
2022-09-25T08:41:32.045Z,980.1
2022-09-25T08:43:33.359Z,980.1
2022-09-25T08:47:36.464Z,980.1
2022-09-25T08:49:37.397Z,980
2022-09-25T08:51:38.694Z,980
2022-09-25T08:53:39.683Z,980
2022-09-25T08:55:41.277Z,980
2022-09-25T08:57:43.081Z,980.1
2022-09-25T08:59:44.362Z,980.1
2022-09-25T09:01:45.647Z,980.1
2022-09-25T09:03:47.411Z,980
2022-09-25T09:05:51.650Z,980
2022-09-25T09:07:50.356Z,980.1
2022-09-25T09:09:51.609Z,980.1
2022-09-25T09:11:53.317Z,980.1
2022-09-25T09:13:54.248Z,980
2022-09-25T09:17:56.999Z,980
2022-09-25T09:19:58.577Z,980
2022-09-25T09:22:00.236Z,980
2022-09-25T09:24:01.891Z,980.1
2022-09-25T09:26:03.406Z,980.1
2022-09-25T09:28:05.133Z,980.1
2022-09-25T09:30:06.701Z,980
2022-09-25T09:32:08.295Z,980
2022-09-25T09:34:09.336Z,980
2022-09-25T09:36:10.324Z,979.9
2022-09-25T09:38:11.837Z,979.9
2022-09-25T09:40:13.537Z,979.9
2022-09-25T09:42:15.277Z,979.8
2022-09-25T09:44:16.911Z,979.8
2022-09-25T09:46:18.287Z,979.9
2022-09-25T09:48:19.858Z,979.9
2022-09-25T09:50:21.402Z,979.8
2022-09-25T09:52:22.835Z,979.8
2022-09-25T09:54:23.981Z,979.7
2022-09-25T09:56:24.925Z,979.8
2022-09-25T09:58:26.476Z,979.7
2022-09-25T10:00:28.081Z,979.8
2022-09-25T10:02:29.887Z,979.9
2022-09-25T10:04:30.610Z,979.8
2022-09-25T10:06:31.825Z,979.9
2022-09-25T10:08:32.806Z,979.9
2022-09-25T10:10:33.933Z,979.8
2022-09-25T10:12:35.428Z,979.8
2022-09-25T10:14:36.714Z,979.9
2022-09-25T10:16:37.685Z,979.8
2022-09-25T10:18:39.044Z,979.8
2022-09-25T10:20:40.401Z,979.7
2022-09-25T10:22:41.650Z,979.8
2022-09-25T10:24:43.467Z,979.8
2022-09-25T10:26:44.424Z,979.8
2022-09-25T10:28:45.384Z,979.8
2022-09-25T10:32:48.061Z,979.8
2022-09-25T10:34:49.140Z,979.8
2022-09-25T10:38:58.110Z,979.8
2022-09-25T10:40:53.134Z,979.8
2022-09-25T10:42:54.315Z,979.9
2022-09-25T10:44:57.979Z,979.8
2022-09-25T10:46:56.612Z,979.8
2022-09-25T10:48:57.672Z,979.8
2022-09-25T10:50:58.588Z,979.7
2022-09-25T10:52:59.814Z,979.7
2022-09-25T10:55:01.509Z,979.8
2022-09-25T10:59:04.407Z,979.8
2022-09-25T11:01:05.844Z,979.8
2022-09-25T11:03:09.741Z,979.8
2022-09-25T11:05:08.794Z,979.8
2022-09-25T11:07:09.784Z,979.8
2022-09-25T11:09:11.029Z,979.8
2022-09-25T11:11:12.547Z,979.7
2022-09-25T11:13:13.976Z,979.7
2022-09-25T11:15:15.375Z,979.7
2022-09-25T11:17:17.049Z,979.7
2022-09-25T11:19:18.340Z,979.7
2022-09-25T11:21:19.281Z,979.7
2022-09-25T11:23:20.267Z,979.7
2022-09-25T11:25:21.320Z,979.7
2022-09-25T11:27:22.768Z,979.7
2022-09-25T11:29:24.085Z,979.7
2022-09-25T11:31:25.493Z,979.7
2022-09-25T11:33:26.921Z,979.7
2022-09-25T11:35:27.838Z,979.7
2022-09-25T11:41:32.310Z,979.7
2022-09-25T11:43:33.189Z,979.6
2022-09-25T11:45:34.332Z,979.6
2022-09-25T11:47:35.329Z,979.7
2022-09-25T11:49:37.066Z,979.6
2022-09-25T11:51:38.242Z,979.7
2022-09-25T11:53:39.378Z,979.6
2022-09-25T11:57:42.463Z,979.6
2022-09-25T11:59:43.783Z,979.6
2022-09-25T12:01:44.923Z,979.6
2022-09-25T12:03:46.332Z,979.5
2022-09-25T12:05:47.867Z,979.6
2022-09-25T12:07:49.414Z,979.6
2022-09-25T12:09:51.121Z,979.6
2022-09-25T12:11:52.579Z,979.5
2022-09-25T12:13:53.870Z,979.5
2022-09-25T12:15:55.493Z,979.5
2022-09-25T12:17:56.897Z,979.5
2022-09-25T12:19:58.129Z,979.6
2022-09-25T12:21:59.390Z,979.6
2022-09-25T12:24:00.707Z,979.6
2022-09-25T12:26:02.369Z,979.6
2022-09-25T12:28:03.381Z,979.6
2022-09-25T12:30:48.689Z,979.6
2022-09-25T12:32:49.746Z,979.5
2022-09-25T12:34:50.760Z,979.6
2022-09-25T12:36:52.581Z,979.5
2022-09-25T12:38:54.323Z,979.5
2022-09-25T12:40:56.158Z,979.5
2022-09-25T12:42:57.371Z,979.5
2022-09-25T12:44:59.154Z,979.5
2022-09-25T12:47:00.177Z,979.5
2022-09-25T12:49:01.852Z,979.4
2022-09-25T12:51:05.518Z,979.5
2022-09-25T12:53:05.299Z,979.5
2022-09-25T12:55:06.306Z,979.5
2022-09-25T12:57:07.934Z,979.5
2022-09-25T12:59:09.691Z,979.5
2022-09-25T13:01:10.932Z,979.4
2022-09-25T13:03:12.390Z,979.5
2022-09-25T13:05:15.152Z,979.5
2022-09-25T13:07:14.866Z,979.4
2022-09-25T13:09:16.440Z,979.5
2022-09-25T13:11:17.409Z,979.4
2022-09-25T13:13:19.055Z,979.5
2022-09-25T13:15:19.926Z,979.4
2022-09-25T13:19:22.684Z,979.4
2022-09-25T13:21:24.406Z,979.4
2022-09-25T13:23:25.670Z,979.5
2022-09-25T13:27:27.875Z,979.4
2022-09-25T13:29:29.506Z,979.3
2022-09-25T13:33:31.852Z,979.2
2022-09-25T13:35:32.913Z,979.3
2022-09-25T13:37:34.528Z,979.3
2022-09-25T13:39:35.837Z,979.3
2022-09-25T13:41:37.220Z,979.3
2022-09-25T13:43:38.399Z,979.3
2022-09-25T13:45:39.817Z,979.3
2022-09-25T13:47:41.178Z,979.2
2022-09-25T13:49:42.582Z,979.2
2022-09-25T13:51:43.809Z,979.3
2022-09-25T13:53:45.990Z,979.3
2022-09-25T13:55:47.454Z,979.3
2022-09-25T13:57:48.811Z,979.3
2022-09-25T13:59:50.426Z,979.3
2022-09-25T14:01:51.370Z,979.4
2022-09-25T14:03:52.316Z,979.4
2022-09-25T14:05:54.083Z,979.3
2022-09-25T14:07:55.561Z,979.2
2022-09-25T14:09:57.228Z,979.3
2022-09-25T14:11:58.167Z,979.3
2022-09-25T14:13:59.644Z,979.3
2022-09-25T14:16:00.545Z,979.3
2022-09-25T14:18:01.492Z,979.3
2022-09-25T14:20:03.266Z,979.4
2022-09-25T14:22:04.228Z,979.3
2022-09-25T14:24:05.515Z,979.3
2022-09-25T14:26:06.942Z,979.4
2022-09-25T14:28:08.213Z,979.4
2022-09-25T14:32:11.222Z,979.3
2022-09-25T14:34:12.977Z,979.4
2022-09-25T14:36:14.269Z,979.4
2022-09-25T14:38:15.259Z,979.5
2022-09-25T14:40:16.821Z,979.4
2022-09-25T14:42:18.483Z,979.5
2022-09-25T14:44:20.307Z,979.5
2022-09-25T14:46:21.993Z,979.5
2022-09-25T14:48:22.959Z,979.5
2022-09-25T14:50:23.854Z,979.4
2022-09-25T14:52:25.528Z,979.4
2022-09-25T14:54:27.205Z,979.3
2022-09-25T14:56:28.762Z,979.4
2022-09-25T14:58:30.444Z,979.5
2022-09-25T15:00:31.738Z,979.3
2022-09-25T15:02:33.543Z,979.4
2022-09-25T15:04:34.959Z,979.3
2022-09-25T15:06:36.010Z,979.3
2022-09-25T15:08:37.247Z,979.2
2022-09-25T15:10:38.742Z,979.3
2022-09-25T15:12:39.991Z,979.2
2022-09-25T15:14:42.132Z,979.3
2022-09-25T15:16:43.564Z,979.2
2022-09-25T15:18:45.184Z,979.3
2022-09-25T15:20:46.429Z,979.2
2022-09-25T15:22:48.206Z,979.2
2022-09-25T15:24:49.983Z,979.1
2022-09-25T15:26:51.561Z,979.1
2022-09-25T15:28:53.180Z,979.2
2022-09-25T15:30:54.904Z,979.1
2022-09-25T15:32:59.942Z,979.1
2022-09-25T15:34:57.822Z,979.1
2022-09-25T15:36:59.671Z,979.1
2022-09-25T15:41:02.390Z,979.1
2022-09-25T15:43:03.492Z,979
2022-09-25T15:45:04.992Z,979
2022-09-25T15:47:06.364Z,978.9
2022-09-25T15:49:08.004Z,979
2022-09-25T15:51:09.801Z,979
2022-09-25T15:53:11.281Z,979.1
2022-09-25T15:55:12.836Z,979.1
2022-09-25T15:57:13.895Z,979.1
2022-09-25T15:59:15.762Z,979
2022-09-25T16:01:17.078Z,979.1
2022-09-25T16:03:18.156Z,979.1
2022-09-25T16:05:20.043Z,979
2022-09-25T16:07:21.398Z,979
2022-09-25T16:09:22.566Z,979
2022-09-25T16:13:25.531Z,979.1
2022-09-25T16:15:27.529Z,979.1
2022-09-25T16:17:28.968Z,979.1
2022-09-25T16:19:30.673Z,979
2022-09-25T16:23:32.854Z,979.1
2022-09-25T16:25:34.260Z,979.1
2022-09-25T16:27:35.289Z,979.1
2022-09-25T16:29:36.196Z,979.1
2022-09-25T16:31:37.623Z,979.1
2022-09-25T16:33:38.576Z,979.1
2022-09-25T16:35:57.774Z,979.1
2022-09-25T16:39:42.572Z,979.2
2022-09-25T16:41:43.711Z,979.2
2022-09-25T16:43:45.142Z,979.2
2022-09-25T16:45:46.563Z,979.2
2022-09-25T16:47:49.346Z,979.3
2022-09-25T16:49:48.827Z,979.3
2022-09-25T16:51:50.420Z,979.3
2022-09-25T16:53:52.372Z,979.3
2022-09-25T16:55:53.810Z,979.4
2022-09-25T16:57:55.715Z,979.4
2022-09-25T16:59:57.675Z,979.4
2022-09-25T17:01:59.508Z,979.4
2022-09-25T17:04:00.630Z,979.3
2022-09-25T17:06:02.113Z,979.4
2022-09-25T17:08:03.405Z,979.4
2022-09-25T17:10:04.866Z,979.4
2022-09-25T17:12:06.129Z,979.3
2022-09-25T17:14:07.165Z,979.4
2022-09-25T17:16:08.323Z,979.4
2022-09-25T17:18:09.509Z,979.4
2022-09-25T17:20:10.886Z,979.4
2022-09-25T17:22:12.528Z,979.4
2022-09-25T17:24:14.099Z,979.3
2022-09-25T17:26:15.510Z,979.3
2022-09-25T17:28:16.689Z,979.4
2022-09-25T17:30:17.753Z,979.4
2022-09-25T17:32:19.161Z,979.5
2022-09-25T17:34:20.741Z,979.4
2022-09-25T17:38:23.258Z,979.5
2022-09-25T17:40:25.079Z,979.4
2022-09-25T17:42:26.698Z,979.5
2022-09-25T17:44:28.565Z,979.5
2022-09-25T17:46:30.327Z,979.5
2022-09-25T17:48:31.454Z,979.5
2022-09-25T17:50:33.233Z,979.4
2022-09-25T17:52:34.444Z,979.5
2022-09-25T17:54:36.168Z,979.5
2022-09-25T17:56:37.329Z,979.6
2022-09-25T17:58:38.954Z,979.6
2022-09-25T18:00:39.950Z,979.6
2022-09-25T18:02:41.738Z,979.6
2022-09-25T18:04:43.554Z,979.7
2022-09-25T18:06:44.881Z,979.5
2022-09-25T18:08:46.340Z,979.6
2022-09-25T18:10:48.234Z,979.6
2022-09-25T18:12:49.900Z,979.7
2022-09-25T18:14:50.946Z,979.7
2022-09-25T18:16:51.859Z,979.7
2022-09-25T18:18:53.133Z,979.6
2022-09-25T18:20:54.157Z,979.7
2022-09-25T18:22:55.480Z,979.7
2022-09-25T18:24:57.439Z,979.7
2022-09-25T18:26:58.810Z,979.8
2022-09-25T18:29:00.011Z,979.8
2022-09-25T18:31:01.128Z,979.7
2022-09-25T18:33:02.252Z,979.8
2022-09-25T18:35:04.123Z,979.8
2022-09-25T18:37:05.189Z,979.8
2022-09-25T18:39:06.372Z,979.8
2022-09-25T18:41:08.193Z,979.8
2022-09-25T18:43:09.507Z,979.8
2022-09-25T18:47:11.855Z,979.9
2022-09-25T18:49:13.725Z,979.8
2022-09-25T18:51:15.435Z,979.9
2022-09-25T18:53:16.958Z,979.9
2022-09-25T18:57:19.629Z,979.8
2022-09-25T18:59:20.651Z,979.8
2022-09-25T19:01:21.932Z,979.8
2022-09-25T19:03:23.016Z,979.8
2022-09-25T19:05:24.417Z,979.7
2022-09-25T19:07:25.619Z,979.8
2022-09-25T19:09:27.471Z,979.9
2022-09-25T19:11:28.599Z,979.9
2022-09-25T19:13:30.111Z,979.9
2022-09-25T19:14:13.939Z,979.9
2022-09-25T19:18:16.667Z,980
2022-09-25T19:20:18.350Z,979.9
2022-09-25T19:22:19.568Z,980
2022-09-25T19:24:21.291Z,979.9
2022-09-25T19:26:22.821Z,979.9
2022-09-25T19:28:24.715Z,980
2022-09-25T19:30:25.964Z,980
2022-09-25T19:32:27.671Z,980
2022-09-25T19:34:29.253Z,980
2022-09-25T19:36:31.004Z,980
2022-09-25T19:38:32.025Z,980
2022-09-25T19:40:33.419Z,980
2022-09-25T19:42:35.198Z,980
2022-09-25T19:44:37.104Z,980
2022-09-25T19:46:38.107Z,980.1
2022-09-25T19:48:39.555Z,980.1
2022-09-25T19:50:41.270Z,980.1
2022-09-25T19:52:42.276Z,980.2
2022-09-25T19:56:44.192Z,980.2
2022-09-25T19:58:45.244Z,980.1
2022-09-25T20:00:46.787Z,980.1
2022-09-25T20:02:48.614Z,980.1
2022-09-25T20:04:49.671Z,980.1
2022-09-25T20:06:50.606Z,980.2
2022-09-25T20:08:51.892Z,980.1
2022-09-25T20:10:53.565Z,980.1
2022-09-25T20:12:54.588Z,980.3
2022-09-25T20:14:56.076Z,980.2
2022-09-25T20:16:57.333Z,980.2
2022-09-25T20:18:58.341Z,980.2
2022-09-25T20:20:59.511Z,980.1
2022-09-25T20:23:01.159Z,980.2
2022-09-25T20:25:02.696Z,980.2
2022-09-25T20:27:04.192Z,980.2
2022-09-25T20:29:05.618Z,980.3
2022-09-25T20:31:06.576Z,980.3
2022-09-25T20:33:08.429Z,980.1
2022-09-25T20:35:09.492Z,980.2
2022-09-25T20:37:11.266Z,980.2
2022-09-25T20:39:15.662Z,980.1
2022-09-25T20:41:13.503Z,980.1
2022-09-25T20:43:14.564Z,980
2022-09-25T20:45:15.566Z,980.2
2022-09-25T20:47:16.995Z,980.1
2022-09-25T20:49:18.854Z,980.1
2022-09-25T20:51:20.725Z,980.1
2022-09-25T20:53:21.683Z,980.1
2022-09-25T20:55:22.953Z,980.2
2022-09-25T20:57:24.848Z,980.1
2022-09-25T20:59:26.530Z,980.1
2022-09-25T21:01:28.449Z,980.1
2022-09-25T21:05:31.323Z,980.1
2022-09-25T21:07:32.719Z,980.1
2022-09-25T21:09:34.141Z,980.1
2022-09-25T21:11:35.226Z,980.1
2022-09-25T21:15:38.255Z,980.1
2022-09-25T21:17:39.191Z,980.1
2022-09-25T21:19:41.116Z,980.1
2022-09-25T21:21:42.383Z,980.1
2022-09-25T21:23:44.071Z,979.9
2022-09-25T21:25:45.373Z,980
2022-09-25T21:27:46.572Z,979.9
2022-09-25T21:29:47.742Z,980
2022-09-25T21:31:50.527Z,979.9
2022-09-25T21:33:50.792Z,980
2022-09-25T21:37:52.650Z,980
2022-09-25T21:39:53.920Z,980
2022-09-25T21:41:55.626Z,979.9
2022-09-25T21:43:57.051Z,979.9
2022-09-25T21:47:59.637Z,979.9
2022-09-25T21:50:00.610Z,979.9
2022-09-25T21:54:03.673Z,979.8
2022-09-25T21:56:04.972Z,979.8
2022-09-25T21:58:06.200Z,979.8
2022-09-25T22:00:07.566Z,979.9
2022-09-25T22:04:11.119Z,979.9
2022-09-25T22:06:12.419Z,979.9
2022-09-25T22:08:14.292Z,979.9
2022-09-25T22:10:15.564Z,979.9
2022-09-25T22:12:17.468Z,979.9
2022-09-25T22:14:19.294Z,979.9
2022-09-25T22:16:21.121Z,979.9
2022-09-25T22:18:22.133Z,980
2022-09-25T22:20:23.754Z,980
2022-09-25T22:22:25.569Z,979.9
2022-09-25T22:24:27.342Z,979.9
2022-09-25T22:26:28.941Z,979.9
2022-09-25T22:28:30.690Z,979.9
2022-09-25T22:30:31.973Z,979.9
2022-09-25T22:32:33.541Z,979.9
2022-09-25T22:34:34.624Z,979.8
2022-09-25T22:36:35.939Z,979.9
2022-09-25T22:38:36.871Z,979.9
2022-09-25T22:40:38.769Z,979.8
2022-09-25T22:42:40.433Z,979.8
2022-09-25T22:44:42.104Z,979.8
2022-09-25T22:46:43.816Z,979.7
2022-09-25T22:48:45.136Z,979.7
2022-09-25T22:50:46.422Z,979.6
2022-09-25T22:52:48.315Z,979.6
2022-09-25T22:54:49.594Z,979.6
2022-09-25T22:56:51.125Z,979.6
2022-09-25T22:58:52.271Z,979.6
2022-09-25T23:00:53.348Z,979.7
2022-09-25T23:02:54.704Z,979.6
2022-09-25T23:04:56.235Z,979.6
2022-09-25T23:06:57.537Z,979.6
2022-09-25T23:08:59.030Z,979.6
2022-09-25T23:11:07.393Z,979.6
2022-09-25T23:13:02.390Z,979.5
2022-09-25T23:15:03.984Z,979.5
2022-09-25T23:19:07.490Z,979.5
2022-09-25T23:21:08.579Z,979.4
2022-09-25T23:23:09.981Z,979.5
2022-09-25T23:25:11.750Z,979.5
2022-09-25T23:27:12.796Z,979.4
2022-09-25T23:29:14.184Z,979.5
2022-09-25T23:31:15.075Z,979.4
2022-09-25T23:35:18.525Z,979.4
2022-09-25T23:37:20.194Z,979.4
2022-09-25T23:39:21.680Z,979.3
2022-09-25T23:41:23.612Z,979.3
2022-09-25T23:43:24.719Z,979.3
2022-09-25T23:45:26.582Z,979.3
2022-09-25T23:47:27.900Z,979.4
2022-09-25T23:49:29.471Z,979.2
2022-09-25T23:51:31.324Z,979.4
2022-09-25T23:53:32.302Z,979.3
2022-09-25T23:55:33.473Z,979.4
2022-09-25T23:57:35.365Z,979.4
2022-09-25T23:59:36.609Z,979.3
